createdAt,value
2022-12-23T00:00:07.574Z,95509
2022-12-23T00:01:07.606Z,95515
2022-12-23T00:02:07.792Z,95515
2022-12-23T00:03:09.103Z,95514
2022-12-23T00:04:07.709Z,95514
2022-12-23T00:05:07.637Z,95523
2022-12-23T00:06:07.615Z,95517
2022-12-23T00:07:07.700Z,95515
2022-12-23T00:08:07.639Z,95510
2022-12-23T00:09:07.668Z,95506
2022-12-23T00:10:07.694Z,95506
2022-12-23T00:11:07.670Z,95506
2022-12-23T00:12:07.685Z,95503
2022-12-23T00:13:07.665Z,95503
2022-12-23T00:14:07.637Z,95499
2022-12-23T00:15:07.626Z,95507
2022-12-23T00:16:07.716Z,95492
2022-12-23T00:17:21.679Z,95503
2022-12-23T00:18:07.623Z,95501
2022-12-23T00:19:07.727Z,95508
2022-12-23T00:20:07.651Z,95508
2022-12-23T00:21:09.050Z,95494
2022-12-23T00:22:07.714Z,95508
2022-12-23T00:23:07.657Z,95499
2022-12-23T00:24:07.641Z,95499
2022-12-23T00:25:07.643Z,95515
2022-12-23T00:26:07.677Z,95509
2022-12-23T00:27:07.713Z,95512
2022-12-23T00:28:07.643Z,95512
2022-12-23T00:29:07.640Z,95503
2022-12-23T00:30:07.688Z,95505
2022-12-23T00:32:07.788Z,95505
2022-12-23T00:34:07.705Z,95510
2022-12-23T00:35:07.758Z,95504
2022-12-23T00:36:07.714Z,95512
2022-12-23T00:37:07.696Z,95512
2022-12-23T00:38:07.727Z,95491
2022-12-23T00:40:09.399Z,95494
2022-12-23T00:41:07.703Z,95494
2022-12-23T00:42:07.742Z,95491
2022-12-23T00:43:07.668Z,95491
2022-12-23T00:44:07.707Z,95481
2022-12-23T00:46:07.739Z,95510
2022-12-23T00:47:07.683Z,95510
2022-12-23T00:48:07.691Z,95494
2022-12-23T00:49:07.711Z,95494
2022-12-23T00:50:07.749Z,95500
2022-12-23T00:51:07.765Z,95500
2022-12-23T00:52:07.690Z,95491
2022-12-23T00:53:07.755Z,95492
2022-12-23T00:54:07.739Z,95492
2022-12-23T00:55:07.741Z,95493
2022-12-23T00:57:07.780Z,95490
2022-12-23T00:58:07.752Z,95494
2022-12-23T00:59:07.724Z,95494
2022-12-23T01:00:07.744Z,95495
2022-12-23T01:01:07.837Z,95497
2022-12-23T01:02:07.984Z,95506
2022-12-23T01:03:07.956Z,95510
2022-12-23T01:04:07.759Z,95510
2022-12-23T01:05:07.774Z,95512
2022-12-23T01:06:07.772Z,95507
2022-12-23T01:07:07.729Z,95507
2022-12-23T01:08:07.774Z,95517
2022-12-23T01:09:07.761Z,95516
2022-12-23T01:11:07.781Z,95516
2022-12-23T01:12:07.780Z,95516
2022-12-23T01:13:07.749Z,95510
2022-12-23T01:14:07.782Z,95508
2022-12-23T01:15:07.784Z,95519
2022-12-23T01:17:09.615Z,95512
2022-12-23T01:18:07.760Z,95512
2022-12-23T01:19:07.813Z,95515
2022-12-23T01:20:07.791Z,95513
2022-12-23T01:21:07.839Z,95519
2022-12-23T01:22:07.752Z,95519
2022-12-23T01:23:07.778Z,95511
2022-12-23T01:25:07.769Z,95517
2022-12-23T01:26:07.872Z,95515
2022-12-23T01:27:07.787Z,95524
2022-12-23T01:28:07.823Z,95524
2022-12-23T01:29:07.862Z,95509
2022-12-23T01:30:07.843Z,95520
2022-12-23T01:31:07.829Z,95516
2022-12-23T01:32:07.867Z,95516
2022-12-23T01:33:07.802Z,95530
2022-12-23T01:34:07.864Z,95536
2022-12-23T01:35:07.810Z,95536
2022-12-23T01:36:07.880Z,95531
2022-12-23T01:37:07.868Z,95531
2022-12-23T01:38:07.854Z,95531
2022-12-23T01:39:07.885Z,95538
2022-12-23T01:40:07.801Z,95533
2022-12-23T01:41:07.901Z,95535
2022-12-23T01:42:07.848Z,95535
2022-12-23T01:43:07.893Z,95542
2022-12-23T01:44:07.894Z,95547
2022-12-23T01:45:07.870Z,95547
2022-12-23T01:46:07.925Z,95542
2022-12-23T01:48:07.920Z,95555
2022-12-23T01:49:07.935Z,95554
2022-12-23T01:50:07.859Z,95548
2022-12-23T01:51:07.862Z,95548
2022-12-23T01:52:07.870Z,95551
2022-12-23T01:53:08.498Z,95554
2022-12-23T01:55:07.862Z,95552
2022-12-23T01:56:07.900Z,95552
2022-12-23T01:57:07.891Z,95556
2022-12-23T01:58:07.862Z,95558
2022-12-23T01:59:07.910Z,95561
2022-12-23T02:00:07.899Z,95551
2022-12-23T02:01:07.950Z,95551
2022-12-23T02:02:08.118Z,95566
2022-12-23T02:03:08.054Z,95563
2022-12-23T02:04:07.899Z,95563
2022-12-23T02:05:07.966Z,95564
2022-12-23T02:06:07.917Z,95564
2022-12-23T02:08:07.954Z,95562
2022-12-23T02:09:07.925Z,95565
2022-12-23T02:11:07.941Z,95561
2022-12-23T02:12:07.937Z,95554
2022-12-23T02:14:07.944Z,95555
2022-12-23T02:15:07.973Z,95560
2022-12-23T02:16:07.910Z,95566
2022-12-23T02:17:08.033Z,95559
2022-12-23T02:18:07.906Z,95559
2022-12-23T02:19:07.911Z,95562
2022-12-23T02:20:07.935Z,95563
2022-12-23T02:21:07.901Z,95565
2022-12-23T02:22:07.932Z,95561
2022-12-23T02:23:07.913Z,95561
2022-12-23T02:24:07.921Z,95557
2022-12-23T02:25:07.957Z,95557
2022-12-23T02:26:07.973Z,95557
2022-12-23T02:27:07.957Z,95562
2022-12-23T02:28:07.958Z,95558
2022-12-23T02:29:07.949Z,95554
2022-12-23T02:30:07.994Z,95554
2022-12-23T02:31:10.006Z,95559
2022-12-23T02:32:07.941Z,95559
2022-12-23T02:33:08.007Z,95553
2022-12-23T02:34:07.962Z,95553
2022-12-23T02:35:07.994Z,95553
2022-12-23T02:36:08.000Z,95553
2022-12-23T02:38:08.016Z,95552
2022-12-23T02:39:07.987Z,95563
2022-12-23T02:40:08.037Z,95553
2022-12-23T02:41:07.978Z,95553
2022-12-23T02:42:07.986Z,95561
2022-12-23T02:43:08.018Z,95560
2022-12-23T02:44:07.975Z,95560
2022-12-23T02:45:08.003Z,95555
2022-12-23T02:46:08.005Z,95555
2022-12-23T02:47:07.991Z,95558
2022-12-23T02:48:08.009Z,95555
2022-12-23T02:49:08.019Z,95554
2022-12-23T02:50:08.015Z,95558
2022-12-23T02:51:07.987Z,95558
2022-12-23T02:52:08.049Z,95557
2022-12-23T02:53:08.033Z,95559
2022-12-23T02:54:08.006Z,95559
2022-12-23T02:55:08.011Z,95556
2022-12-23T02:56:08.001Z,95554
2022-12-23T02:57:07.994Z,95572
2022-12-23T02:58:08.052Z,95576
2022-12-23T02:59:08.007Z,95576
2022-12-23T03:00:08.047Z,95565
2022-12-23T03:01:08.110Z,95574
2022-12-23T03:02:08.203Z,95574
2022-12-23T03:03:08.223Z,95567
2022-12-23T03:04:08.023Z,95567
2022-12-23T03:05:08.062Z,95564
2022-12-23T03:06:08.068Z,95564
2022-12-23T03:07:09.692Z,95566
2022-12-23T03:08:10.153Z,95579
2022-12-23T03:09:08.035Z,95575
2022-12-23T03:10:08.036Z,95575
2022-12-23T03:11:08.097Z,95579
2022-12-23T03:12:08.058Z,95584
2022-12-23T03:13:08.054Z,95584
2022-12-23T03:14:08.080Z,95584
2022-12-23T03:15:08.089Z,95584
2022-12-23T03:16:08.183Z,95590
2022-12-23T03:17:08.093Z,95590
2022-12-23T03:18:08.052Z,95589
2022-12-23T03:19:08.115Z,95588
2022-12-23T03:20:08.094Z,95587
2022-12-23T03:22:08.106Z,95588
2022-12-23T03:23:08.123Z,95599
2022-12-23T03:24:08.097Z,95599
2022-12-23T03:25:08.072Z,95597
2022-12-23T03:26:08.063Z,95602
2022-12-23T03:27:08.121Z,95598
2022-12-23T03:28:08.112Z,95601
2022-12-23T03:29:08.125Z,95593
2022-12-23T03:30:08.150Z,95593
2022-12-23T03:31:08.131Z,95588
2022-12-23T03:32:08.149Z,95587
2022-12-23T03:33:08.130Z,95591
2022-12-23T03:34:08.150Z,95593
2022-12-23T03:35:08.171Z,95598
2022-12-23T03:36:08.112Z,95600
2022-12-23T03:37:08.144Z,95600
2022-12-23T03:38:08.185Z,95596
2022-12-23T03:39:08.189Z,95597
2022-12-23T03:40:08.094Z,95597
2022-12-23T03:41:08.106Z,95589
2022-12-23T03:42:08.096Z,95594
2022-12-23T03:43:08.145Z,95589
2022-12-23T03:45:37.407Z,95588
2022-12-23T03:46:08.186Z,95588
2022-12-23T03:47:08.174Z,95588
2022-12-23T03:48:08.177Z,95588
2022-12-23T03:49:08.168Z,95586
2022-12-23T03:50:08.178Z,95587
2022-12-23T03:51:08.187Z,95587
2022-12-23T03:52:08.193Z,95602
2022-12-23T03:53:08.171Z,95602
2022-12-23T03:54:08.133Z,95598
2022-12-23T03:55:08.187Z,95594
2022-12-23T03:56:08.184Z,95594
2022-12-23T03:57:08.150Z,95586
2022-12-23T03:58:08.164Z,95590
2022-12-23T04:00:08.192Z,95580
2022-12-23T04:01:08.197Z,95586
2022-12-23T04:03:08.213Z,95584
2022-12-23T04:05:08.167Z,95578
2022-12-23T04:06:08.163Z,95580
2022-12-23T04:07:08.214Z,95586
2022-12-23T04:09:08.193Z,95586
2022-12-23T04:11:08.195Z,95588
2022-12-23T04:12:08.217Z,95591
2022-12-23T04:13:08.250Z,95587
2022-12-23T04:14:08.247Z,95587
2022-12-23T04:15:12.859Z,95590
2022-12-23T04:16:08.297Z,95590
2022-12-23T04:17:08.220Z,95585
2022-12-23T04:18:08.312Z,95585
2022-12-23T04:19:08.211Z,95586
2022-12-23T04:21:08.252Z,95586
2022-12-23T04:22:10.638Z,95578
2022-12-23T04:23:08.291Z,95578
2022-12-23T04:24:08.256Z,95586
2022-12-23T04:25:08.264Z,95580
2022-12-23T04:27:08.254Z,95581
2022-12-23T04:28:08.222Z,95581
2022-12-23T04:29:08.264Z,95583
2022-12-23T04:30:08.239Z,95583
2022-12-23T04:31:08.308Z,95583
2022-12-23T04:32:08.244Z,95574
2022-12-23T04:33:08.290Z,95583
2022-12-23T04:34:08.282Z,95583
2022-12-23T04:35:08.292Z,95581
2022-12-23T04:36:08.267Z,95581
2022-12-23T04:37:08.268Z,95573
2022-12-23T04:38:08.333Z,95574
2022-12-23T04:39:08.274Z,95574
2022-12-23T04:40:08.295Z,95566
2022-12-23T04:41:08.305Z,95566
2022-12-23T04:43:08.333Z,95575
2022-12-23T04:44:08.320Z,95575
2022-12-23T04:45:08.283Z,95575
2022-12-23T04:47:08.333Z,95572
2022-12-23T04:48:08.313Z,95581
2022-12-23T04:49:08.311Z,95581
2022-12-23T04:50:08.330Z,95592
2022-12-23T04:51:08.312Z,95592
2022-12-23T04:52:08.278Z,95592
2022-12-23T04:54:08.287Z,95596
2022-12-23T04:55:08.288Z,95601
2022-12-23T04:57:08.321Z,95600
2022-12-23T04:58:08.332Z,95599
2022-12-23T04:59:10.828Z,95603
2022-12-23T05:00:08.348Z,95603
2022-12-23T05:01:08.483Z,95608
2022-12-23T05:02:08.583Z,95609
2022-12-23T05:03:08.550Z,95609
2022-12-23T05:04:08.386Z,95609
2022-12-23T05:05:08.329Z,95615
2022-12-23T05:06:08.306Z,95615
2022-12-23T05:07:08.382Z,95611
2022-12-23T05:08:08.373Z,95609
2022-12-23T05:09:08.386Z,95609
2022-12-23T05:10:08.342Z,95609
2022-12-23T05:11:08.381Z,95606
2022-12-23T05:12:08.339Z,95606
2022-12-23T05:13:08.402Z,95609
2022-12-23T05:14:08.426Z,95606
2022-12-23T05:15:08.399Z,95598
2022-12-23T05:16:08.468Z,95599
2022-12-23T05:18:08.390Z,95603
2022-12-23T05:19:08.437Z,95599
2022-12-23T05:20:08.356Z,95599
2022-12-23T05:21:08.361Z,95596
2022-12-23T05:22:08.366Z,95597
2022-12-23T05:24:08.447Z,95596
2022-12-23T05:25:08.430Z,95596
2022-12-23T05:26:08.406Z,95592
2022-12-23T05:27:08.366Z,95590
2022-12-23T05:28:08.372Z,95589
2022-12-23T05:29:08.445Z,95592
2022-12-23T05:30:08.437Z,95594
2022-12-23T05:31:08.490Z,95596
2022-12-23T05:32:08.519Z,95589
2022-12-23T05:33:08.444Z,95589
2022-12-23T05:34:08.510Z,95591
2022-12-23T05:37:08.446Z,95590
2022-12-23T05:38:08.453Z,95591
2022-12-23T05:39:08.414Z,95591
2022-12-23T05:40:08.401Z,95587
2022-12-23T05:41:08.442Z,95598
2022-12-23T05:42:08.504Z,95597
2022-12-23T05:43:08.464Z,95600
2022-12-23T05:44:08.429Z,95600
2022-12-23T05:45:08.439Z,95600
2022-12-23T05:46:08.477Z,95605
2022-12-23T05:47:08.499Z,95605
2022-12-23T05:48:08.483Z,95604
2022-12-23T05:49:08.434Z,95606
2022-12-23T05:51:08.420Z,95608
2022-12-23T05:52:08.481Z,95599
2022-12-23T05:53:08.459Z,95599
2022-12-23T05:54:08.440Z,95601
2022-12-23T05:55:08.451Z,95601
2022-12-23T05:56:08.485Z,95598
2022-12-23T05:57:08.494Z,95601
2022-12-23T05:58:08.451Z,95601
2022-12-23T06:01:08.471Z,95608
2022-12-23T06:02:08.633Z,95604
2022-12-23T06:03:08.586Z,95598
2022-12-23T06:04:08.588Z,95598
2022-12-23T06:05:08.521Z,95595
2022-12-23T06:06:08.484Z,95595
2022-12-23T06:07:08.469Z,95590
2022-12-23T06:09:08.465Z,95596
2022-12-23T06:12:08.503Z,95596
2022-12-23T06:13:11.369Z,95600
2022-12-23T06:14:08.509Z,95601
2022-12-23T06:15:08.564Z,95601
2022-12-23T06:16:08.537Z,95601
2022-12-23T06:18:08.598Z,95604
2022-12-23T06:19:08.544Z,95604
2022-12-23T06:20:08.532Z,95606
2022-12-23T06:21:08.496Z,95606
2022-12-23T06:23:08.548Z,95616
2022-12-23T06:24:08.586Z,95617
2022-12-23T06:25:08.560Z,95614
2022-12-23T06:26:08.506Z,95614
2022-12-23T06:27:08.579Z,95614
2022-12-23T06:28:08.594Z,95614
2022-12-23T06:29:08.534Z,95614
2022-12-23T06:30:08.557Z,95617
2022-12-23T06:31:08.595Z,95622
2022-12-23T06:32:08.660Z,95622
2022-12-23T06:33:08.583Z,95618
2022-12-23T06:34:08.588Z,95615
2022-12-23T06:35:08.627Z,95615
2022-12-23T06:36:08.584Z,95617
2022-12-23T06:37:08.552Z,95614
2022-12-23T06:38:12.014Z,95614
2022-12-23T06:39:08.573Z,95604
2022-12-23T06:40:08.594Z,95611
2022-12-23T06:41:08.603Z,95613
2022-12-23T06:42:08.579Z,95613
2022-12-23T06:43:08.608Z,95605
2022-12-23T06:44:08.567Z,95607
2022-12-23T06:45:08.573Z,95610
2022-12-23T06:46:08.737Z,95614
2022-12-23T06:48:08.645Z,95617
2022-12-23T06:49:13.158Z,95617
2022-12-23T06:50:11.599Z,95614
2022-12-23T06:51:08.629Z,95614
2022-12-23T06:52:08.629Z,95614
2022-12-23T06:54:08.588Z,95617
2022-12-23T06:55:08.632Z,95618
2022-12-23T06:56:08.640Z,95622
2022-12-23T06:58:08.630Z,95620
2022-12-23T06:59:08.629Z,95617
2022-12-23T07:00:08.642Z,95626
2022-12-23T07:01:10.208Z,95619
2022-12-23T07:02:08.865Z,95619
2022-12-23T07:03:08.940Z,95624
2022-12-23T07:04:08.659Z,95617
2022-12-23T07:05:08.618Z,95617
2022-12-23T07:06:08.658Z,95619
2022-12-23T07:07:08.628Z,95618
2022-12-23T07:10:08.687Z,95625
2022-12-23T07:11:08.698Z,95622
2022-12-23T07:12:08.677Z,95624
2022-12-23T07:13:08.624Z,95623
2022-12-23T07:14:08.705Z,95622
2022-12-23T07:15:08.689Z,95619
2022-12-23T07:17:08.821Z,95623
2022-12-23T07:18:08.646Z,95627
2022-12-23T07:19:08.724Z,95627
2022-12-23T07:21:17.740Z,95632
2022-12-23T07:22:08.756Z,95625
2022-12-23T07:23:08.711Z,95625
2022-12-23T07:24:08.696Z,95621
2022-12-23T07:25:08.695Z,95623
2022-12-23T07:26:08.722Z,95623
2022-12-23T07:27:11.785Z,95624
2022-12-23T07:28:08.685Z,95623
2022-12-23T07:29:08.676Z,95623
2022-12-23T07:30:08.678Z,95620
2022-12-23T07:31:08.805Z,95623
2022-12-23T07:32:08.755Z,95625
2022-12-23T07:33:08.747Z,95625
2022-12-23T07:34:08.768Z,95622
2022-12-23T07:35:08.698Z,95622
2022-12-23T07:36:08.737Z,95626
2022-12-23T07:37:08.777Z,95623
2022-12-23T07:38:08.749Z,95623
2022-12-23T07:39:08.804Z,95623
2022-12-23T07:40:09.065Z,95623
2022-12-23T07:41:08.715Z,95621
2022-12-23T07:42:42.930Z,95625
2022-12-23T07:43:08.743Z,95635
2022-12-23T07:44:08.788Z,95634
2022-12-23T07:45:08.746Z,95640
2022-12-23T07:46:08.783Z,95641
2022-12-23T07:47:08.789Z,95643
2022-12-23T07:48:08.774Z,95643
2022-12-23T07:49:08.732Z,95645
2022-12-23T07:50:08.790Z,95649
2022-12-23T07:52:08.803Z,95651
2022-12-23T07:53:08.761Z,95651
2022-12-23T07:54:08.749Z,95649
2022-12-23T07:55:08.735Z,95654
2022-12-23T07:56:08.771Z,95655
2022-12-23T07:57:08.744Z,95653
2022-12-23T07:58:08.796Z,95660
2022-12-23T08:01:08.805Z,95659
2022-12-23T08:02:08.968Z,95657
2022-12-23T08:03:08.900Z,95657
2022-12-23T08:04:12.031Z,95659
2022-12-23T08:05:08.867Z,95659
2022-12-23T08:06:08.823Z,95663
2022-12-23T08:08:08.810Z,95664
2022-12-23T08:09:08.778Z,95656
2022-12-23T08:10:08.818Z,95650
2022-12-23T08:11:08.766Z,95650
2022-12-23T08:12:08.773Z,95651
2022-12-23T08:13:08.856Z,95651
2022-12-23T08:14:08.838Z,95651
2022-12-23T08:15:08.897Z,95649
2022-12-23T08:16:08.993Z,95653
2022-12-23T08:17:09.001Z,95653
2022-12-23T08:18:08.798Z,95651
2022-12-23T08:19:08.801Z,95655
2022-12-23T08:20:08.810Z,95654
2022-12-23T08:21:08.807Z,95663
2022-12-23T08:22:08.824Z,95663
2022-12-23T08:23:08.857Z,95659
2022-12-23T08:24:08.851Z,95655
2022-12-23T08:25:08.827Z,95659
2022-12-23T08:26:08.883Z,95659
2022-12-23T08:28:08.943Z,95662
2022-12-23T08:29:08.870Z,95662
2022-12-23T08:30:08.863Z,95661
2022-12-23T08:31:08.941Z,95662
2022-12-23T08:32:08.847Z,95658
2022-12-23T08:33:08.856Z,95663
2022-12-23T08:34:08.938Z,95667
2022-12-23T08:36:08.903Z,95663
2022-12-23T08:37:08.855Z,95663
2022-12-23T08:38:08.856Z,95665
2022-12-23T08:39:08.887Z,95665
2022-12-23T08:40:08.937Z,95675
2022-12-23T08:41:12.286Z,95668
2022-12-23T08:42:08.879Z,95669
2022-12-23T08:43:08.913Z,95669
2022-12-23T08:44:08.870Z,95664
2022-12-23T08:45:08.916Z,95657
2022-12-23T08:46:08.982Z,95658
2022-12-23T08:47:08.954Z,95666
2022-12-23T08:48:08.864Z,95666
2022-12-23T08:49:08.919Z,95651
2022-12-23T08:50:08.903Z,95651
2022-12-23T08:51:08.964Z,95654
2022-12-23T08:52:08.918Z,95659
2022-12-23T08:53:08.909Z,95654
2022-12-23T08:54:08.894Z,95664
2022-12-23T08:55:08.892Z,95655
2022-12-23T08:56:08.885Z,95656
2022-12-23T08:57:08.949Z,95657
2022-12-23T08:58:08.945Z,95657
2022-12-23T08:59:13.290Z,95670
2022-12-23T09:00:08.954Z,95660
2022-12-23T09:01:08.986Z,95660
2022-12-23T09:02:09.156Z,95660
2022-12-23T09:03:09.136Z,95671
2022-12-23T09:04:08.910Z,95671
2022-12-23T09:05:08.952Z,95674
2022-12-23T09:06:08.954Z,95681
2022-12-23T09:07:08.981Z,95678
2022-12-23T09:08:08.964Z,95683
2022-12-23T09:09:08.950Z,95675
2022-12-23T09:10:08.970Z,95671
2022-12-23T09:11:08.979Z,95674
2022-12-23T09:12:08.959Z,95674
2022-12-23T09:13:08.983Z,95672
2022-12-23T09:16:08.996Z,95678
2022-12-23T09:17:08.985Z,95678
2022-12-23T09:18:12.486Z,95682
2022-12-23T09:19:08.983Z,95682
2022-12-23T09:20:08.987Z,95679
2022-12-23T09:21:08.989Z,95682
2022-12-23T09:22:09.045Z,95678
2022-12-23T09:23:08.978Z,95680
2022-12-23T09:24:08.989Z,95680
2022-12-23T09:25:09.054Z,95686
2022-12-23T09:26:08.978Z,95686
2022-12-23T09:27:09.012Z,95683
2022-12-23T09:28:08.982Z,95670
2022-12-23T09:29:09.031Z,95674
2022-12-23T09:30:09.059Z,95670
2022-12-23T09:31:09.075Z,95666
2022-12-23T09:32:09.016Z,95675
2022-12-23T09:33:09.037Z,95675
2022-12-23T09:34:09.015Z,95672
2022-12-23T09:35:09.074Z,95673
2022-12-23T09:36:09.040Z,95673
2022-12-23T09:37:08.996Z,95674
2022-12-23T09:38:09.108Z,95680
2022-12-23T09:39:09.042Z,95680
2022-12-23T09:40:09.045Z,95681
2022-12-23T09:41:09.057Z,95681
2022-12-23T09:42:09.067Z,95676
2022-12-23T09:43:09.061Z,95672
2022-12-23T09:44:09.015Z,95672
2022-12-23T09:45:09.032Z,95663
2022-12-23T09:46:09.062Z,95663
2022-12-23T09:47:09.056Z,95663
2022-12-23T09:48:09.105Z,95664
2022-12-23T09:49:09.133Z,95664
2022-12-23T09:50:09.040Z,95664
2022-12-23T09:51:09.064Z,95662
2022-12-23T09:52:09.056Z,95664
2022-12-23T09:53:09.075Z,95664
2022-12-23T09:54:13.493Z,95654
2022-12-23T09:55:12.784Z,95652
2022-12-23T09:56:09.039Z,95652
2022-12-23T09:57:09.051Z,95660
2022-12-23T09:58:09.056Z,95660
2022-12-23T09:59:09.097Z,95655
2022-12-23T10:00:09.094Z,95655
2022-12-23T10:01:09.148Z,95657
2022-12-23T10:02:09.276Z,95659
2022-12-23T10:03:09.239Z,95656
2022-12-23T10:04:09.129Z,95655
2022-12-23T10:05:09.106Z,95655
2022-12-23T10:06:09.091Z,95655
2022-12-23T10:07:09.128Z,95649
2022-12-23T10:08:09.110Z,95652
2022-12-23T10:09:09.096Z,95648
2022-12-23T10:10:09.132Z,95643
2022-12-23T10:11:09.086Z,95645
2022-12-23T10:12:09.144Z,95649
2022-12-23T10:13:09.157Z,95644
2022-12-23T10:14:09.109Z,95644
2022-12-23T10:15:09.127Z,95646
2022-12-23T10:16:09.175Z,95646
2022-12-23T10:17:09.168Z,95642
2022-12-23T10:18:09.171Z,95636
2022-12-23T10:19:09.134Z,95636
2022-12-23T10:20:09.116Z,95636
2022-12-23T10:21:09.103Z,95638
2022-12-23T10:22:09.135Z,95636
2022-12-23T10:23:09.143Z,95633
2022-12-23T10:24:09.152Z,95631
2022-12-23T10:25:09.135Z,95631
2022-12-23T10:26:09.191Z,95636
2022-12-23T10:27:09.117Z,95636
2022-12-23T10:28:09.167Z,95628
2022-12-23T10:29:10.907Z,95628
2022-12-23T10:30:26.976Z,95625
2022-12-23T10:31:39.983Z,95622
2022-12-23T10:32:12.999Z,95625
2022-12-23T10:33:09.180Z,95625
2022-12-23T10:34:09.144Z,95625
2022-12-23T10:35:09.136Z,95624
2022-12-23T10:36:09.249Z,95621
2022-12-23T10:37:09.273Z,95621
2022-12-23T10:39:09.179Z,95616
2022-12-23T10:40:09.167Z,95618
2022-12-23T10:41:09.894Z,95620
2022-12-23T10:42:09.218Z,95616
2022-12-23T10:43:09.161Z,95612
2022-12-23T10:44:09.211Z,95617
2022-12-23T10:45:09.173Z,95617
2022-12-23T10:46:09.256Z,95622
2022-12-23T10:47:09.224Z,95622
2022-12-23T10:48:13.887Z,95619
2022-12-23T10:49:09.211Z,95616
2022-12-23T10:50:09.245Z,95623
2022-12-23T10:52:09.170Z,95618
2022-12-23T10:53:09.243Z,95614
2022-12-23T10:54:09.214Z,95614
2022-12-23T10:55:09.241Z,95623
2022-12-23T10:56:09.285Z,95616
2022-12-23T10:57:09.250Z,95616
2022-12-23T10:58:09.324Z,95606
2022-12-23T10:59:09.240Z,95605
2022-12-23T11:01:16.130Z,95611
2022-12-23T11:02:09.395Z,95609
2022-12-23T11:03:09.456Z,95605
2022-12-23T11:04:09.323Z,95596
2022-12-23T11:05:09.221Z,95596
2022-12-23T11:07:42.910Z,95595
2022-12-23T11:08:09.285Z,95595
2022-12-23T11:09:13.277Z,95586
2022-12-23T11:10:09.269Z,95587
2022-12-23T11:11:09.296Z,95579
2022-12-23T11:12:09.238Z,95579
2022-12-23T11:13:09.248Z,95595
2022-12-23T11:16:09.303Z,95575
2022-12-23T11:17:09.238Z,95576
2022-12-23T11:18:09.291Z,95576
2022-12-23T11:19:09.315Z,95580
2022-12-23T11:20:09.264Z,95577
2022-12-23T11:21:09.317Z,95578
2022-12-23T11:22:09.339Z,95578
2022-12-23T11:23:09.265Z,95583
2022-12-23T11:24:09.300Z,95581
2022-12-23T11:25:09.298Z,95581
2022-12-23T11:26:09.286Z,95581
2022-12-23T11:27:09.315Z,95583
2022-12-23T11:28:09.274Z,95583
2022-12-23T11:29:09.353Z,95584
2022-12-23T11:30:09.313Z,95584
2022-12-23T11:31:09.436Z,95587
2022-12-23T11:32:09.404Z,95592
2022-12-23T11:33:09.278Z,95592
2022-12-23T11:34:09.331Z,95588
2022-12-23T11:35:09.394Z,95580
2022-12-23T11:36:09.322Z,95580
2022-12-23T11:37:09.342Z,95587
2022-12-23T11:38:09.347Z,95587
2022-12-23T11:39:09.387Z,95579
2022-12-23T11:40:09.306Z,95579
2022-12-23T11:41:09.304Z,95585
2022-12-23T11:42:09.382Z,95575
2022-12-23T11:43:09.325Z,95575
2022-12-23T11:44:09.361Z,95585
2022-12-23T11:45:09.323Z,95578
2022-12-23T11:46:13.449Z,95574
2022-12-23T11:47:09.354Z,95573
2022-12-23T11:48:09.335Z,95573
2022-12-23T11:49:09.358Z,95565
2022-12-23T11:50:09.385Z,95564
2022-12-23T11:51:09.345Z,95567
2022-12-23T11:52:09.388Z,95562
2022-12-23T11:53:09.381Z,95562
2022-12-23T11:54:09.671Z,95556
2022-12-23T11:55:09.375Z,95556
2022-12-23T11:56:09.389Z,95556
2022-12-23T11:57:09.430Z,95545
2022-12-23T11:58:09.346Z,95561
2022-12-23T11:59:09.375Z,95558
2022-12-23T12:00:09.420Z,95560
2022-12-23T12:01:09.351Z,95557
2022-12-23T12:02:09.455Z,95551
2022-12-23T12:03:09.518Z,95560
2022-12-23T12:04:09.418Z,95562
2022-12-23T12:05:09.411Z,95546
2022-12-23T12:06:11.103Z,95546
2022-12-23T12:07:09.476Z,95540
2022-12-23T12:08:09.411Z,95540
2022-12-23T12:09:09.422Z,95534
2022-12-23T12:10:09.420Z,95534
2022-12-23T12:11:09.427Z,95542
2022-12-23T12:12:09.545Z,95545
2022-12-23T12:13:09.422Z,95545
2022-12-23T12:14:09.384Z,95542
2022-12-23T12:16:09.494Z,95545
2022-12-23T12:17:09.487Z,95550
2022-12-23T12:18:09.479Z,95552
2022-12-23T12:19:09.444Z,95552
2022-12-23T12:20:09.464Z,95544
2022-12-23T12:21:09.409Z,95544
2022-12-23T12:23:13.703Z,95537
2022-12-23T12:24:18.406Z,95537
2022-12-23T12:25:09.489Z,95538
2022-12-23T12:26:09.448Z,95545
2022-12-23T12:27:09.504Z,95548
2022-12-23T12:28:09.454Z,95548
2022-12-23T12:29:09.456Z,95549
2022-12-23T12:30:09.513Z,95546
2022-12-23T12:31:09.673Z,95546
2022-12-23T12:32:09.468Z,95548
2022-12-23T12:33:09.460Z,95549
2022-12-23T12:34:09.449Z,95549
2022-12-23T12:35:09.500Z,95551
2022-12-23T12:36:09.476Z,95548
2022-12-23T12:37:09.452Z,95551
2022-12-23T12:38:09.446Z,95546
2022-12-23T12:39:09.459Z,95531
2022-12-23T12:40:09.753Z,95542
2022-12-23T12:41:09.539Z,95545
2022-12-23T12:42:09.505Z,95545
2022-12-23T12:43:09.504Z,95537
2022-12-23T12:44:09.520Z,95539
2022-12-23T12:45:09.530Z,95538
2022-12-23T12:46:09.585Z,95538
2022-12-23T12:47:36.074Z,95538
2022-12-23T12:48:16.400Z,95540
2022-12-23T12:49:09.529Z,95541
2022-12-23T12:50:09.620Z,95549
2022-12-23T12:51:09.557Z,95542
2022-12-23T12:52:09.509Z,95537
2022-12-23T12:53:09.523Z,95530
2022-12-23T12:54:09.488Z,95530
2022-12-23T12:55:09.518Z,95538
2022-12-23T12:56:09.494Z,95538
2022-12-23T12:57:09.539Z,95537
2022-12-23T12:58:09.554Z,95537
2022-12-23T12:59:09.548Z,95525
2022-12-23T13:00:13.858Z,95524
2022-12-23T13:01:09.570Z,95524
2022-12-23T13:02:09.606Z,95533
2022-12-23T13:03:09.589Z,95520
2022-12-23T13:04:09.570Z,95520
2022-12-23T13:05:09.597Z,95518
2022-12-23T13:06:09.563Z,95519
2022-12-23T13:07:09.545Z,95526
2022-12-23T13:08:09.585Z,95527
2022-12-23T13:09:09.517Z,95528
2022-12-23T13:10:09.551Z,95525
2022-12-23T13:11:09.534Z,95524
2022-12-23T13:12:09.564Z,95534
2022-12-23T13:13:09.597Z,95535
2022-12-23T13:14:09.569Z,95529
2022-12-23T13:15:09.630Z,95527
2022-12-23T13:16:09.618Z,95525
2022-12-23T13:17:09.649Z,95525
2022-12-23T13:18:09.621Z,95517
2022-12-23T13:19:09.586Z,95526
2022-12-23T13:20:09.597Z,95526
2022-12-23T13:21:09.660Z,95510
2022-12-23T13:22:09.638Z,95510
2022-12-23T13:23:41.165Z,95514
2022-12-23T13:24:09.596Z,95514
2022-12-23T13:25:09.562Z,95501
2022-12-23T13:26:09.791Z,95509
2022-12-23T13:27:09.628Z,95512
2022-12-23T13:28:09.614Z,95512
2022-12-23T13:29:09.578Z,95510
2022-12-23T13:30:09.595Z,95508
2022-12-23T13:31:09.778Z,95508
2022-12-23T13:33:09.688Z,95508
2022-12-23T13:34:09.638Z,95503
2022-12-23T13:35:09.625Z,95503
2022-12-23T13:37:14.034Z,95503
2022-12-23T13:38:09.670Z,95503
2022-12-23T13:39:09.643Z,95501
2022-12-23T13:41:09.681Z,95497
2022-12-23T13:43:09.612Z,95503
2022-12-23T13:44:09.639Z,95507
2022-12-23T13:45:09.687Z,95514
2022-12-23T13:46:09.728Z,95509
2022-12-23T13:47:09.658Z,95509
2022-12-23T13:48:09.678Z,95504
2022-12-23T13:49:09.709Z,95514
2022-12-23T13:50:09.678Z,95501
2022-12-23T13:51:09.745Z,95509
2022-12-23T13:52:09.673Z,95509
2022-12-23T13:53:09.666Z,95506
2022-12-23T13:54:09.710Z,95506
2022-12-23T13:55:09.693Z,95506
2022-12-23T13:56:09.734Z,95510
2022-12-23T13:57:09.651Z,95523
2022-12-23T13:58:09.693Z,95519